Time;durP1;ratioP1;P1;durP2;ratioP2;P2;SDS_P1;SDS_P2;PMS_P1;PMS_P2;Temp;Humidity;BMP_temperature;BMP_pressure;BME280_temperature;BME280_humidity;BME280_pressure;Samples;Min_cycle;Max_cycle;Signal;HPM_P1;HPM_P2
2021/09/08 00:00:45;;;;;;;6.38;1.70;;;15.00;73.40;;;;;;5032173;28;20463;-69
2021/09/08 00:03:12;;;;;;;6.93;2.10;;;15.00;73.60;;;;;;5029496;28;20013;-80
2021/09/08 00:05:38;;;;;;;5.60;1.88;;;15.00;73.70;;;;;;5029017;28;20025;-78
2021/09/08 00:08:05;;;;;;;6.40;1.13;;;15.00;73.90;;;;;;5026835;28;20018;-71
2021/09/08 00:10:32;;;;;;;9.07;1.83;;;15.00;74.10;;;;;;5026307;28;20021;-79
2021/09/08 00:12:58;;;;;;;8.57;2.00;;;15.00;74.20;;;;;;5031546;28;20704;-79
2021/09/08 00:15:25;;;;;;;5.63;1.35;;;14.90;74.30;;;;;;5031508;28;20469;-79
2021/09/08 00:17:51;;;;;;;4.63;1.48;;;14.90;74.40;;;;;;5031900;28;20035;-68
2021/09/08 00:20:18;;;;;;;4.07;1.25;;;14.90;74.60;;;;;;5021551;28;20033;-77
2021/09/08 00:22:46;;;;;;;8.25;2.25;;;14.90;74.80;;;;;;5030706;28;20026;-79
2021/09/08 00:25:14;;;;;;;4.72;1.33;;;14.90;74.90;;;;;;5030661;28;20036;-80
2021/09/08 00:27:40;;;;;;;7.03;1.20;;;14.90;75.10;;;;;;5029722;28;20618;-71
2021/09/08 00:30:08;;;;;;;8.55;1.20;;;14.90;75.20;;;;;;5027247;28;20028;-67
2021/09/08 00:32:35;;;;;;;4.95;1.33;;;14.90;75.50;;;;;;5032079;28;20009;-72
2021/09/08 00:35:03;;;;;;;3.10;1.13;;;14.90;75.70;;;;;;5023703;28;20051;-80
2021/09/08 00:37:29;;;;;;;4.28;1.33;;;14.90;75.80;;;;;;5028881;28;20139;-79
2021/09/08 00:39:56;;;;;;;6.60;1.20;;;14.90;75.90;;;;;;5029184;28;20043;-75
2021/09/08 00:42:22;;;;;;;4.97;1.60;;;14.90;76.10;;;;;;5031115;28;20022;-78
2021/09/08 00:44:49;;;;;;;8.75;1.27;;;14.80;76.40;;;;;;5031178;28;20025;-80
2021/09/08 00:47:17;;;;;;;2.63;1.10;;;14.80;76.60;;;;;;5029116;28;20017;-80
2021/09/08 00:49:47;;;;;;;6.85;3.15;;;14.80;76.80;;;;;;5028467;28;20056;-66
2021/09/08 00:52:15;;;;;;;7.15;2.28;;;14.80;77.00;;;;;;5029779;28;20022;-73
2021/09/08 00:54:47;;;;;;;4.32;1.50;;;14.80;77.20;;;;;;5030181;28;20022;-80
2021/09/08 00:57:14;;;;;;;4.07;1.40;;;14.80;77.20;;;;;;5029172;28;20041;-69
2021/09/08 00:59:43;;;;;;;13.00;2.05;;;14.80;77.20;;;;;;5030173;28;20028;-74
2021/09/08 01:02:10;;;;;;;2.83;1.10;;;14.70;77.10;;;;;;5024740;28;20104;-75
2021/09/08 01:04:37;;;;;;;6.93;1.52;;;14.70;77.10;;;;;;5030795;28;20025;-78
2021/09/08 01:07:05;;;;;;;7.50;1.88;;;14.70;77.20;;;;;;5030076;28;20029;-80
2021/09/08 01:09:32;;;;;;;3.55;1.15;;;14.70;77.30;;;;;;5032211;28;20072;-70
2021/09/08 01:12:00;;;;;;;5.05;2.22;;;14.70;77.50;;;;;;5028456;28;20022;-80
2021/09/08 01:14:27;;;;;;;4.72;1.33;;;14.70;77.50;;;;;;5026992;28;20024;-81
2021/09/08 01:16:56;;;;;;;8.27;1.20;;;14.70;77.70;;;;;;5022992;28;20017;-79
2021/09/08 01:19:23;;;;;;;4.07;1.30;;;14.60;77.80;;;;;;5029957;28;20083;-67
2021/09/08 01:21:50;;;;;;;7.80;2.05;;;14.60;78.00;;;;;;5027834;28;20469;-71
2021/09/08 01:24:16;;;;;;;7.90;1.75;;;14.60;78.10;;;;;;5021589;28;20032;-69
2021/09/08 01:26:45;;;;;;;4.22;1.02;;;14.60;78.30;;;;;;5024613;28;20084;-68
2021/09/08 01:29:11;;;;;;;4.93;1.08;;;14.50;78.40;;;;;;5024234;28;20141;-72
2021/09/08 01:31:38;;;;;;;4.28;1.70;;;14.50;78.60;;;;;;5027306;28;20021;-78
2021/09/08 01:34:05;;;;;;;5.68;1.17;;;14.50;78.70;;;;;;5027692;28;20112;-78
2021/09/08 01:36:50;;;;;;;5.18;1.20;;;14.50;78.80;;;;;;5026468;28;20072;-79
2021/09/08 01:39:18;;;;;;;7.23;2.13;;;14.40;78.90;;;;;;5026458;28;20022;-80
2021/09/08 01:41:46;;;;;;;4.43;1.20;;;14.50;78.70;;;;;;5026358;28;20073;-69
2021/09/08 01:44:18;;;;;;;7.10;1.92;;;14.40;78.60;;;;;;5027847;28;20068;-77
2021/09/08 01:46:45;;;;;;;2.13;0.90;;;14.40;78.70;;;;;;5026580;28;20013;-66
2021/09/08 01:49:11;;;;;;;2.45;1.10;;;14.30;78.40;;;;;;5024673;28;20028;-66
2021/09/08 01:51:38;;;;;;;2.78;0.80;;;14.20;78.30;;;;;;5026224;28;20018;-71
2021/09/08 01:54:04;;;;;;;4.03;1.38;;;14.10;78.10;;;;;;5025777;28;20014;-66
2021/09/08 01:56:31;;;;;;;5.45;0.98;;;14.10;77.70;;;;;;5029405;28;20041;-72
2021/09/08 01:58:57;;;;;;;2.60;1.20;;;14.00;77.50;;;;;;5025255;28;20484;-68
2021/09/08 02:01:25;;;;;;;3.22;1.15;;;14.00;77.30;;;;;;5026264;28;20083;-68
2021/09/08 02:03:52;;;;;;;4.72;1.42;;;13.90;77.40;;;;;;5023852;28;20018;-72
2021/09/08 02:06:28;;;;;;;2.38;1.20;;;13.90;77.50;;;;;;5024570;28;20747;-66
2021/09/08 02:08:59;;;;;;;7.03;1.20;;;13.90;77.60;;;;;;5024865;28;20439;-70
2021/09/08 02:11:28;;;;;;;2.78;1.67;;;13.80;77.30;;;;;;5018679;28;20414;-69
2021/09/08 02:13:55;;;;;;;4.30;1.70;;;13.80;77.30;;;;;;5028546;28;20480;-66
2021/09/08 02:16:22;;;;;;;2.75;1.08;;;13.70;77.20;;;;;;5021715;28;20010;-65
2021/09/08 02:18:49;;;;;;;4.57;1.50;;;13.70;77.20;;;;;;5026076;28;20102;-80
2021/09/08 02:21:16;;;;;;;2.40;1.40;;;13.60;77.10;;;;;;5021807;28;20374;-69
2021/09/08 02:23:47;;;;;;;3.92;1.98;;;13.60;77.10;;;;;;5023442;28;20024;-68
2021/09/08 02:26:14;;;;;;;5.57;2.50;;;13.50;77.00;;;;;;5026759;28;20021;-67
2021/09/08 02:28:41;;;;;;;5.55;3.33;;;13.50;77.10;;;;;;5028697;28;20020;-66
2021/09/08 02:31:07;;;;;;;5.88;2.90;;;13.50;76.80;;;;;;5026206;28;20021;-68
2021/09/08 02:33:34;;;;;;;7.43;3.30;;;13.40;76.60;;;;;;5026674;28;20030;-71
2021/09/08 02:36:01;;;;;;;10.10;3.45;;;13.40;76.50;;;;;;5028307;28;20029;-67
2021/09/08 02:38:28;;;;;;;5.88;3.35;;;13.30;76.40;;;;;;5027283;28;20065;-67
2021/09/08 02:40:54;;;;;;;6.20;3.05;;;13.30;76.30;;;;;;5026647;28;21017;-67
2021/09/08 02:43:21;;;;;;;4.95;3.17;;;13.20;76.80;;;;;;5029487;28;20112;-68
2021/09/08 02:45:48;;;;;;;8.95;3.25;;;13.20;76.30;;;;;;5028960;28;20021;-68
2021/09/08 02:48:14;;;;;;;4.55;2.78;;;13.20;76.30;;;;;;5030931;28;20017;-66
2021/09/08 02:50:40;;;;;;;5.72;2.70;;;13.20;76.30;;;;;;5025238;28;20017;-66
2021/09/08 02:53:07;;;;;;;5.55;3.20;;;13.20;76.20;;;;;;5026174;28;20484;-72
2021/09/08 02:55:34;;;;;;;3.70;2.65;;;13.20;76.00;;;;;;5026988;28;20097;-67
2021/09/08 02:58:00;;;;;;;8.60;3.92;;;13.10;76.10;;;;;;5024742;28;20112;-69
2021/09/08 03:00:27;;;;;;;6.20;2.25;;;13.10;76.30;;;;;;5027065;28;20033;-67
2021/09/08 03:02:53;;;;;;;11.10;2.40;;;13.10;76.60;;;;;;5026679;28;20112;-67
2021/09/08 03:05:20;;;;;;;3.10;1.30;;;13.10;77.20;;;;;;5026310;28;20476;-66
2021/09/08 03:07:46;;;;;;;2.15;1.33;;;13.10;77.70;;;;;;5026293;28;20108;-68
2021/09/08 03:10:13;;;;;;;2.65;1.20;;;13.10;78.10;;;;;;5026135;28;20024;-66
2021/09/08 03:12:39;;;;;;;2.15;1.15;;;13.10;78.40;;;;;;5027776;28;20032;-66
2021/09/08 03:15:07;;;;;;;7.00;1.52;;;13.20;78.70;;;;;;5028272;28;20421;-67
2021/09/08 03:17:34;;;;;;;6.18;1.08;;;13.20;79.10;;;;;;5031350;28;20036;-66
2021/09/08 03:20:00;;;;;;;7.57;1.80;;;13.20;79.40;;;;;;5028746;28;20472;-72
2021/09/08 03:22:27;;;;;;;9.05;1.83;;;13.20;79.60;;;;;;5031085;28;20432;-74
2021/09/08 03:24:53;;;;;;;7.30;1.38;;;13.30;80.00;;;;;;5028122;28;20500;-68
2021/09/08 03:27:20;;;;;;;7.22;2.13;;;13.40;80.40;;;;;;5031660;28;20120;-67
2021/09/08 03:29:46;;;;;;;6.57;1.48;;;13.40;80.60;;;;;;5030933;28;20037;-77
2021/09/08 03:32:13;;;;;;;4.45;1.30;;;13.40;80.80;;;;;;5034476;28;20013;-72
2021/09/08 03:34:39;;;;;;;5.03;1.30;;;13.40;80.80;;;;;;5029828;28;20037;-66
2021/09/08 03:37:06;;;;;;;8.02;2.28;;;13.50;81.00;;;;;;5031959;28;20026;-80
2021/09/08 03:39:32;;;;;;;7.75;2.65;;;13.50;81.00;;;;;;5033561;28;20037;-78
2021/09/08 03:41:59;;;;;;;5.65;2.80;;;13.50;80.90;;;;;;5031620;28;20029;-74
2021/09/08 03:44:25;;;;;;;5.88;2.10;;;13.60;80.90;;;;;;5032167;28;20044;-75
2021/09/08 03:46:52;;;;;;;9.65;2.95;;;13.60;80.80;;;;;;5032456;28;20048;-65
2021/09/08 03:49:18;;;;;;;4.63;1.95;;;13.60;81.00;;;;;;5029329;28;20531;-66
2021/09/08 03:51:45;;;;;;;10.10;3.17;;;13.60;81.20;;;;;;5029322;28;20025;-67
2021/09/08 03:54:51;;;;;;;23.00;17.13;;;13.60;81.50;;;;;;5029359;28;20048;-68
2021/09/08 03:57:57;;;;;;;23.95;14.52;;;13.70;82.10;;;;;;5027343;28;20037;-73
2021/09/08 04:01:03;;;;;;;10.80;3.42;;;13.70;82.20;;;;;;5028719;28;20061;-73
2021/09/08 04:04:09;;;;;;;10.75;2.80;;;13.80;82.80;;;;;;5025588;28;20080;-67
2021/09/08 04:07:15;;;;;;;12.07;3.70;;;13.80;83.40;;;;;;5027681;28;20045;-64
2021/09/08 04:10:23;;;;;;;15.32;3.42;;;13.80;83.70;;;;;;5027548;28;20101;-65
2021/09/08 04:13:29;;;;;;;13.68;5.75;;;13.90;84.70;;;;;;5029910;28;20524;-67
2021/09/08 04:16:35;;;;;;;12.05;7.78;;;13.90;86.30;;;;;;5028253;28;20017;-74
2021/09/08 04:19:41;;;;;;;25.30;14.50;;;14.00;87.20;;;;;;5030901;28;20017;-75
2021/09/08 04:22:47;;;;;;;14.70;6.72;;;14.00;87.90;;;;;;5029350;28;20030;-67
2021/09/08 04:25:53;;;;;;;15.32;7.25;;;14.00;88.30;;;;;;5029182;28;20032;-74
2021/09/08 04:28:59;;;;;;;17.80;10.15;;;14.00;88.40;;;;;;5028410;28;20067;-70
2021/09/08 04:32:05;;;;;;;13.27;6.32;;;14.00;88.70;;;;;;5027461;28;20022;-65
2021/09/08 04:35:11;;;;;;;12.18;5.78;;;14.00;88.90;;;;;;5029849;28;20433;-65
2021/09/08 04:38:17;;;;;;;15.02;5.57;;;14.10;89.10;;;;;;5028911;28;20030;-66
2021/09/08 04:41:23;;;;;;;13.57;7.00;;;14.10;89.20;;;;;;5026847;28;20083;-75
2021/09/08 04:44:29;;;;;;;14.32;7.00;;;14.00;89.10;;;;;;5024613;28;20519;-73
2021/09/08 04:47:36;;;;;;;19.52;8.85;;;14.10;89.10;;;;;;5027720;28;20424;-72
2021/09/08 04:50:42;;;;;;;17.48;11.27;;;14.00;89.10;;;;;;5025706;28;20022;-67
2021/09/08 04:53:48;;;;;;;21.35;9.18;;;14.00;89.20;;;;;;5025036;28;20045;-74
2021/09/08 04:56:14;;;;;;;20.17;6.30;;;14.00;89.30;;;;;;5025694;28;20384;-67
2021/09/08 04:58:41;;;;;;;10.15;5.38;;;14.00;89.40;;;;;;5029663;28;20025;-68
2021/09/08 05:01:47;;;;;;;10.57;5.40;;;14.00;89.30;;;;;;5025879;28;20056;-74
2021/09/08 05:04:33;;;;;;;12.93;5.47;;;14.00;89.60;;;;;;5026588;28;20476;-67
2021/09/08 05:07:00;;;;;;;11.18;6.47;;;14.00;89.60;;;;;;5023659;28;20105;-70
2021/09/08 05:09:47;;;;;;;13.82;5.97;;;14.00;89.60;;;;;;5027754;28;20455;-78
2021/09/08 05:12:16;;;;;;;14.20;6.90;;;13.90;89.50;;;;;;5016416;28;20036;-68
2021/09/08 05:14:42;;;;;;;14.75;6.32;;;13.90;89.60;;;;;;5027220;28;20028;-72
2021/09/08 05:17:09;;;;;;;17.10;6.47;;;13.90;89.70;;;;;;5026667;28;20029;-70
2021/09/08 05:19:35;;;;;;;12.55;6.38;;;13.90;89.50;;;;;;5027240;28;20029;-77
2021/09/08 05:22:02;;;;;;;8.48;5.35;;;13.90;89.40;;;;;;5026986;28;20562;-69
2021/09/08 05:24:28;;;;;;;14.88;5.07;;;13.90;89.60;;;;;;5028448;28;20530;-77
2021/09/08 05:26:55;;;;;;;14.20;5.70;;;13.90;89.60;;;;;;5024340;28;20039;-74
2021/09/08 05:29:21;;;;;;;12.15;3.22;;;13.90;89.80;;;;;;5028148;28;20049;-76
2021/09/08 05:31:48;;;;;;;13.10;4.97;;;13.90;89.80;;;;;;5030143;28;20590;-67
2021/09/08 05:34:15;;;;;;;9.23;3.03;;;13.90;89.80;;;;;;5027972;28;20022;-70
2021/09/08 05:36:41;;;;;;;5.53;2.78;;;13.90;89.90;;;;;;5029303;28;20013;-73
2021/09/08 05:39:08;;;;;;;12.90;3.42;;;14.00;90.00;;;;;;5022709;28;20379;-67
2021/09/08 05:42:14;;;;;;;13.10;3.92;;;14.00;90.00;;;;;;5027823;28;20047;-67
2021/09/08 05:45:20;;;;;;;8.13;3.33;;;14.00;90.00;;;;;;5029907;28;20013;-68
2021/09/08 05:48:26;;;;;;;9.52;2.88;;;14.00;90.00;;;;;;5027565;28;20021;-68
2021/09/08 05:51:35;;;;;;;6.75;2.05;;;14.10;90.10;;;;;;5026889;28;20024;-67
2021/09/08 05:54:41;;;;;;;11.38;3.60;;;14.10;90.00;;;;;;5027548;28;20048;-67
2021/09/08 05:57:47;;;;;;;8.10;2.45;;;14.10;90.10;;;;;;5020963;28;20516;-66
2021/09/08 06:00:53;;;;;;;6.95;3.03;;;14.10;90.20;;;;;;5026001;28;20103;-70
2021/09/08 06:03:59;;;;;;;7.85;2.67;;;14.10;90.20;;;;;;5028908;28;20021;-68
2021/09/08 06:07:06;;;;;;;5.35;2.55;;;14.20;90.40;;;;;;5024966;28;20401;-67
2021/09/08 06:10:17;;;;;;;5.68;2.20;;;14.20;90.40;;;;;;5022393;28;20021;-69
2021/09/08 06:13:23;;;;;;;4.80;2.42;;;14.20;90.50;;;;;;5030675;28;20018;-65
2021/09/08 06:16:29;;;;;;;6.82;2.00;;;14.30;90.60;;;;;;5028317;28;20506;-66
2021/09/08 06:19:36;;;;;;;7.00;2.25;;;14.40;90.70;;;;;;5024866;28;20029;-66
2021/09/08 06:22:42;;;;;;;12.77;7.97;;;14.40;90.60;;;;;;5027567;28;20132;-65
2021/09/08 06:25:48;;;;;;;19.85;12.80;;;14.40;90.60;;;;;;5033345;28;20029;-66
2021/09/08 06:28:14;;;;;;;11.02;4.07;;;14.40;90.60;;;;;;5031417;28;20377;-69
2021/09/08 06:30:41;;;;;;;5.57;2.53;;;14.50;90.60;;;;;;5031969;28;20020;-78
2021/09/08 06:33:48;;;;;;;6.70;3.13;;;14.50;90.60;;;;;;5028797;28;20096;-82
2021/09/08 06:36:38;;;;;;;4.25;2.90;;;14.50;90.60;;;;;;5033187;28;20021;-70
2021/09/08 06:39:06;;;;;;;6.88;2.25;;;14.60;90.70;;;;;;5027799;28;20029;-75
2021/09/08 06:41:32;;;;;;;8.30;3.80;;;14.60;90.60;;;;;;5030830;28;20044;-67
2021/09/08 06:43:59;;;;;;;7.82;4.20;;;14.60;90.60;;;;;;5028962;28;20021;-67
2021/09/08 06:46:25;;;;;;;28.85;14.80;;;14.60;90.70;;;;;;5038489;28;20023;-67
2021/09/08 06:48:52;;;;;;;15.00;9.75;;;14.70;90.80;;;;;;5032809;28;20116;-68
2021/09/08 06:51:18;;;;;;;13.20;4.93;;;14.70;90.80;;;;;;5023108;28;20017;-67
2021/09/08 06:53:45;;;;;;;8.48;4.40;;;14.80;90.70;;;;;;5033796;28;20022;-70
2021/09/08 06:56:11;;;;;;;10.40;3.78;;;14.90;90.60;;;;;;5035026;28;20091;-65
2021/09/08 06:58:38;;;;;;;23.33;14.10;;;14.90;90.50;;;;;;5030921;28;20083;-70
2021/09/08 07:01:04;;;;;;;13.75;8.82;;;14.90;90.50;;;;;;5038283;28;20044;-69
2021/09/08 07:03:30;;;;;;;13.98;5.90;;;15.00;90.50;;;;;;5037367;28;20116;-68
2021/09/08 07:05:57;;;;;;;7.63;4.18;;;15.00;90.40;;;;;;5031179;28;20009;-66
2021/09/08 07:08:23;;;;;;;10.38;4.43;;;15.10;90.30;;;;;;5037925;28;20581;-67
2021/09/08 07:10:50;;;;;;;11.02;3.78;;;15.10;90.20;;;;;;5034614;28;20029;-69
2021/09/08 07:13:16;;;;;;;8.93;4.05;;;15.10;90.10;;;;;;5037291;28;20025;-68
2021/09/08 07:15:43;;;;;;;10.98;4.05;;;15.20;90.00;;;;;;5037799;28;20403;-65
2021/09/08 07:18:09;;;;;;;10.20;4.70;;;15.20;89.80;;;;;;5038716;28;20045;-73
2021/09/08 07:20:37;;;;;;;10.43;4.22;;;15.20;89.70;;;;;;5034946;28;20566;-68
2021/09/08 07:23:03;;;;;;;8.68;4.10;;;15.30;89.70;;;;;;5032344;28;20030;-67
2021/09/08 07:25:30;;;;;;;14.13;4.32;;;15.30;89.50;;;;;;5038856;28;20029;-74
2021/09/08 07:27:57;;;;;;;6.88;4.40;;;15.40;90.00;;;;;;5038729;28;20055;-66
2021/09/08 07:30:24;;;;;;;6.72;4.95;;;15.40;89.20;;;;;;5035293;28;20032;-70
2021/09/08 07:32:50;;;;;;;7.20;4.13;;;15.40;89.50;;;;;;5033481;28;20087;-67
2021/09/08 07:35:16;;;;;;;30.70;19.48;;;15.50;88.80;;;;;;5033631;28;20025;-69
2021/09/08 07:37:43;;;;;;;13.55;8.07;;;15.50;88.60;;;;;;5038784;28;20014;-69
2021/09/08 07:40:11;;;;;;;15.40;5.90;;;15.60;88.50;;;;;;5039882;28;20035;-71
2021/09/08 07:42:38;;;;;;;10.25;3.47;;;15.60;88.30;;;;;;5037008;28;20063;-66
2021/09/08 07:45:06;;;;;;;10.07;5.25;;;15.70;88.10;;;;;;5038747;28;20476;-70
2021/09/08 07:47:33;;;;;;;10.85;5.07;;;15.70;87.90;;;;;;5037591;28;20428;-68
2021/09/08 07:50:00;;;;;;;9.77;4.93;;;15.70;87.60;;;;;;5029446;28;20040;-69
2021/09/08 07:52:27;;;;;;;8.85;4.32;;;15.80;87.50;;;;;;5034721;28;20021;-66
2021/09/08 07:54:53;;;;;;;7.85;4.55;;;15.90;87.30;;;;;;5031816;28;20108;-72
2021/09/08 07:57:19;;;;;;;10.25;4.40;;;15.90;87.10;;;;;;5034686;28;20073;-68
2021/09/08 07:59:46;;;;;;;8.35;4.40;;;16.00;86.90;;;;;;5039596;28;20075;-66
2021/09/08 08:02:12;;;;;;;11.73;6.10;;;16.00;86.80;;;;;;5032925;28;20033;-69
2021/09/08 08:04:39;;;;;;;12.02;5.07;;;16.10;86.70;;;;;;5036107;28;20021;-68
2021/09/08 08:07:05;;;;;;;17.85;14.88;;;16.20;86.60;;;;;;5034183;28;20025;-68
2021/09/08 08:09:32;;;;;;;15.07;8.02;;;16.30;86.30;;;;;;5030005;28;20099;-65
2021/09/08 08:11:58;;;;;;;12.00;6.15;;;16.30;86.00;;;;;;5034188;28;20017;-66
2021/09/08 08:14:25;;;;;;;7.82;4.45;;;16.40;85.70;;;;;;5037488;28;20029;-68
2021/09/08 08:16:52;;;;;;;8.10;4.65;;;16.50;85.50;;;;;;5038131;28;20017;-74
2021/09/08 08:19:19;;;;;;;7.03;3.25;;;16.60;85.30;;;;;;5034846;28;20009;-66
2021/09/08 08:21:45;;;;;;;10.63;4.78;;;16.60;84.90;;;;;;5036422;28;20029;-67
2021/09/08 08:24:12;;;;;;;10.10;3.22;;;16.60;84.60;;;;;;5036072;28;20021;-70
2021/09/08 08:26:38;;;;;;;4.68;2.25;;;16.70;84.40;;;;;;5033136;28;20333;-66
2021/09/08 08:29:05;;;;;;;2.47;2.00;;;16.80;83.90;;;;;;5042492;28;20027;-74
2021/09/08 08:31:31;;;;;;;7.85;2.30;;;16.90;83.30;;;;;;5032547;28;20021;-69
2021/09/08 08:33:58;;;;;;;6.15;1.67;;;17.00;82.80;;;;;;5038816;28;20026;-76
2021/09/08 08:36:25;;;;;;;6.95;2.10;;;17.00;82.10;;;;;;5041449;28;20013;-69
2021/09/08 08:38:51;;;;;;;5.70;1.70;;;17.10;81.90;;;;;;5031539;28;20025;-70
2021/09/08 08:41:18;;;;;;;7.78;2.47;;;17.20;81.10;;;;;;5036834;28;20382;-66
2021/09/08 08:43:44;;;;;;;8.13;1.95;;;17.30;80.50;;;;;;5036445;28;20474;-66
2021/09/08 08:46:11;;;;;;;15.40;1.70;;;17.40;80.40;;;;;;5037314;28;20013;-71
2021/09/08 08:48:37;;;;;;;5.65;1.77;;;17.50;80.40;;;;;;5032015;28;20025;-74
2021/09/08 08:51:04;;;;;;;6.07;2.33;;;17.60;79.90;;;;;;5036048;28;20071;-68
2021/09/08 08:53:31;;;;;;;4.20;1.42;;;17.70;79.30;;;;;;5036906;28;20358;-74
2021/09/08 08:55:57;;;;;;;7.20;2.38;;;17.80;78.60;;;;;;5037750;28;20078;-69
2021/09/08 08:58:24;;;;;;;82.15;66.07;;;17.80;78.30;;;;;;5031648;28;20021;-80
2021/09/08 09:01:26;;;;;;;6.53;4.93;;;17.90;77.90;;;;;;5032827;28;20028;-73
2021/09/08 09:04:00;;;;;;;5.60;2.17;;;18.00;77.50;;;;;;5025318;28;20022;-70
2021/09/08 09:06:28;;;;;;;7.32;1.75;;;18.10;77.10;;;;;;5024708;28;20067;-72
2021/09/08 09:09:07;;;;;;;8.05;1.98;;;18.20;76.50;;;;;;5029713;28;20033;-68
2021/09/08 09:11:34;;;;;;;5.65;2.03;;;18.20;76.10;;;;;;5027860;28;20075;-71
2021/09/08 09:14:02;;;;;;;9.02;1.70;;;18.30;76.20;;;;;;5031133;28;20045;-69
2021/09/08 09:16:29;;;;;;;6.20;2.42;;;18.40;76.50;;;;;;5030233;28;20040;-67
2021/09/08 09:18:56;;;;;;;8.55;3.30;;;18.40;75.90;;;;;;5029836;28;20481;-65
2021/09/08 09:21:25;;;;;;;6.55;3.88;;;18.50;75.00;;;;;;5028906;28;20812;-69
2021/09/08 09:23:57;;;;;;;5.80;2.30;;;18.50;75.30;;;;;;5028332;28;20039;-67
2021/09/08 09:26:30;;;;;;;10.07;1.92;;;18.60;74.30;;;;;;5030412;28;20427;-69
2021/09/08 09:29:12;;;;;;;2.50;1.52;;;18.70;73.80;;;;;;5031647;28;20017;-66
2021/09/08 09:31:53;;;;;;;4.20;2.10;;;18.80;73.60;;;;;;5023615;28;20018;-67
2021/09/08 09:34:21;;;;;;;7.72;1.65;;;18.90;73.40;;;;;;5026674;28;20491;-66
2021/09/08 09:36:56;;;;;;;5.43;1.70;;;19.00;72.00;;;;;;5030225;28;20411;-73
2021/09/08 09:39:27;;;;;;;4.00;1.27;;;19.10;71.40;;;;;;5026442;28;20477;-71
2021/09/08 09:41:57;;;;;;;7.03;2.28;;;19.10;70.90;;;;;;5023677;28;20785;-76
2021/09/08 09:44:24;;;;;;;7.40;1.70;;;19.20;70.70;;;;;;5028025;28;20022;-73
2021/09/08 09:46:55;;;;;;;3.75;1.73;;;19.30;69.80;;;;;;5024600;28;20444;-71
2021/09/08 09:49:24;;;;;;;5.50;1.98;;;19.40;69.60;;;;;;5025653;28;20033;-73
2021/09/08 09:51:55;;;;;;;7.18;1.73;;;19.50;69.40;;;;;;5028489;28;20037;-71
2021/09/08 09:54:25;;;;;;;8.10;2.88;;;19.50;69.10;;;;;;5031219;28;20041;-71
2021/09/08 09:56:55;;;;;;;11.95;4.88;;;19.60;69.20;;;;;;5026329;28;20052;-69
2021/09/08 09:59:22;;;;;;;8.13;1.90;;;19.70;69.10;;;;;;5021138;28;20010;-69
2021/09/08 10:01:49;;;;;;;8.65;2.00;;;19.80;68.70;;;;;;5027366;28;20116;-72
2021/09/08 10:04:16;;;;;;;4.45;2.00;;;19.90;68.20;;;;;;5028579;28;20376;-67
2021/09/08 10:06:48;;;;;;;3.60;1.30;;;19.90;67.50;;;;;;5030716;28;20496;-70
2021/09/08 10:09:17;;;;;;;2.38;1.42;;;20.00;67.10;;;;;;5023428;28;20033;-68
2021/09/08 10:11:49;;;;;;;5.30;1.88;;;20.00;66.70;;;;;;5028941;28;20071;-64
2021/09/08 10:14:21;;;;;;;8.30;5.22;;;20.00;66.70;;;;;;5026675;28;20026;-70
2021/09/08 10:16:48;;;;;;;9.73;2.42;;;20.10;67.00;;;;;;5026258;28;20661;-69
2021/09/08 10:19:24;;;;;;;8.35;2.42;;;20.10;66.90;;;;;;5027590;28;22142;-65
2021/09/08 10:21:52;;;;;;;13.02;6.85;;;20.20;66.60;;;;;;5025676;28;20120;-69
2021/09/08 10:24:20;;;;;;;5.85;2.88;;;20.30;66.10;;;;;;5028849;28;20018;-65
2021/09/08 10:26:47;;;;;;;4.57;1.58;;;20.30;66.10;;;;;;5027175;28;20022;-70
2021/09/08 10:29:15;;;;;;;5.70;2.08;;;20.40;65.70;;;;;;5026263;28;20460;-67
2021/09/08 10:31:48;;;;;;;6.53;1.85;;;20.40;65.50;;;;;;5026702;28;20545;-69
2021/09/08 10:34:54;;;;;;;5.38;1.85;;;20.40;65.00;;;;;;5025529;28;20040;-69
2021/09/08 10:38:02;;;;;;;4.35;2.30;;;20.40;64.80;;;;;;5027418;28;20100;-71
2021/09/08 10:41:08;;;;;;;6.07;1.83;;;20.50;64.60;;;;;;5031589;28;20502;-69
2021/09/08 10:44:15;;;;;;;8.25;2.95;;;20.60;64.50;;;;;;5029061;28;20029;-67
2021/09/08 10:47:15;;;;;;;6.03;2.45;;;20.60;64.10;;;;;;5028575;28;20036;-66
2021/09/08 10:50:01;;;;;;;6.10;1.70;;;20.70;64.00;;;;;;5025912;28;20589;-68
2021/09/08 10:52:37;;;;;;;2.65;1.30;;;20.70;63.00;;;;;;5040813;28;20068;-66
2021/09/08 10:55:33;;;;;;;5.15;1.50;;;20.80;62.00;;;;;;5025457;28;20025;-68
2021/09/08 10:58:39;;;;;;;3.53;2.28;;;20.90;61.40;;;;;;5026707;28;20037;-66
2021/09/08 11:01:55;;;;;;;2.63;1.25;;;20.90;60.80;;;;;;5029074;28;20046;-69
2021/09/08 11:05:01;;;;;;;3.33;1.85;;;20.90;60.20;;;;;;5026684;28;20392;-66
2021/09/08 11:08:07;;;;;;;2.22;1.13;;;21.00;59.80;;;;;;5026548;28;20092;-72
2021/09/08 11:11:25;;;;;;;3.70;1.08;;;21.10;59.40;;;;;;5027421;28;20041;-70
2021/09/08 11:14:31;;;;;;;2.63;1.10;;;21.20;59.40;;;;;;5029502;28;20095;-64
2021/09/08 11:17:37;;;;;;;3.72;1.17;;;21.20;59.40;;;;;;5026594;28;20028;-65
2021/09/08 11:20:43;;;;;;;2.45;0.82;;;21.20;58.50;;;;;;5025047;28;20025;-70
2021/09/08 11:23:49;;;;;;;4.32;0.90;;;21.30;59.00;;;;;;5027590;28;20588;-68
2021/09/08 11:26:55;;;;;;;3.75;1.00;;;21.30;59.20;;;;;;5024677;28;20018;-67
2021/09/08 11:29:42;;;;;;;1.73;1.05;;;21.40;58.80;;;;;;5023099;28;20465;-67
2021/09/08 11:32:09;;;;;;;2.67;0.80;;;21.40;58.80;;;;;;5027875;28;20048;-66
2021/09/08 11:34:47;;;;;;;2.88;1.40;;;21.40;58.90;;;;;;5027065;28;20107;-69
2021/09/08 11:37:15;;;;;;;8.35;4.68;;;21.50;58.90;;;;;;5025256;28;20013;-68
2021/09/08 11:39:42;;;;;;;6.07;1.73;;;21.60;58.50;;;;;;5034673;28;20477;-70
2021/09/08 11:42:10;;;;;;;2.97;1.73;;;21.70;58.80;;;;;;5027540;28;20476;-68
2021/09/08 11:44:36;;;;;;;6.63;1.08;;;21.80;58.30;;;;;;5036539;28;20052;-71
2021/09/08 11:47:16;;;;;;;3.83;1.20;;;21.80;57.90;;;;;;5031673;28;20025;-66
2021/09/08 11:49:44;;;;;;;4.47;1.42;;;21.90;57.30;;;;;;5031380;28;20079;-69
2021/09/08 11:52:18;;;;;;;2.95;1.40;;;22.00;56.70;;;;;;5029289;28;20017;-71
2021/09/08 11:54:48;;;;;;;5.28;1.58;;;21.90;56.70;;;;;;5029976;28;20408;-67
2021/09/08 11:57:23;;;;;;;2.50;1.17;;;22.00;57.00;;;;;;5036295;28;20432;-73
2021/09/08 11:59:52;;;;;;;0.90;0.70;;;22.00;56.90;;;;;;5034129;28;20140;-73
2021/09/08 12:02:19;;;;;;;6.75;1.20;;;22.10;56.70;;;;;;5033207;28;20099;-68
2021/09/08 12:04:46;;;;;;;3.88;1.70;;;22.10;57.30;;;;;;5032614;28;20365;-68
2021/09/08 12:07:13;;;;;;;4.13;2.30;;;22.10;56.50;;;;;;5033341;28;20017;-69
2021/09/08 12:09:43;;;;;;;7.40;2.33;;;22.10;56.30;;;;;;5032553;28;20477;-70
2021/09/08 12:12:16;;;;;;;4.72;3.70;;;22.00;56.50;;;;;;5032834;28;20033;-68
2021/09/08 12:14:46;;;;;;;6.93;3.70;;;22.10;56.70;;;;;;5032769;28;20164;-67
2021/09/08 12:17:25;;;;;;;6.03;2.15;;;22.10;56.50;;;;;;5028241;28;20092;-74
2021/09/08 12:19:58;;;;;;;3.65;1.50;;;22.10;56.70;;;;;;5027395;28;20025;-67
2021/09/08 12:22:36;;;;;;;3.45;1.25;;;22.10;56.70;;;;;;5033214;28;20041;-66
2021/09/08 12:25:16;;;;;;;7.20;2.00;;;22.20;56.40;;;;;;5026409;28;20028;-69
2021/09/08 12:27:45;;;;;;;4.13;1.30;;;22.20;56.60;;;;;;5029352;28;20029;-70
2021/09/08 12:30:20;;;;;;;2.60;1.52;;;22.30;56.00;;;;;;5027232;28;20377;-69
2021/09/08 12:33:03;;;;;;;3.58;1.50;;;22.30;56.10;;;;;;5032066;28;20059;-66
2021/09/08 12:35:34;;;;;;;5.30;1.17;;;22.30;55.90;;;;;;5031665;28;20016;-66
2021/09/08 12:38:01;;;;;;;2.55;1.00;;;22.30;55.60;;;;;;5030349;28;20017;-66
2021/09/08 12:40:28;;;;;;;3.17;1.02;;;22.30;55.60;;;;;;5031412;28;20029;-66
2021/09/08 12:42:55;;;;;;;3.35;0.90;;;22.30;56.10;;;;;;5027884;28;20463;-66
2021/09/08 12:45:21;;;;;;;2.38;0.80;;;22.30;55.70;;;;;;5029980;28;20528;-67
2021/09/08 12:47:56;;;;;;;5.43;0.95;;;22.40;55.10;;;;;;5032969;28;20039;-67
2021/09/08 12:50:22;;;;;;;1.52;1.23;;;22.30;55.20;;;;;;5030010;28;20108;-67
2021/09/08 12:52:49;;;;;;;4.68;1.17;;;22.30;55.00;;;;;;5032283;28;20021;-70
2021/09/08 12:55:15;;;;;;;6.20;1.48;;;22.30;54.80;;;;;;5029731;28;20428;-67
2021/09/08 12:57:42;;;;;;;4.60;1.38;;;22.20;55.10;;;;;;5031972;28;20048;-68
2021/09/08 13:00:09;;;;;;;3.15;0.82;;;22.20;55.00;;;;;;5030950;28;20018;-71
2021/09/08 13:02:35;;;;;;;3.53;1.05;;;22.20;55.00;;;;;;5029790;28;20057;-66
2021/09/08 13:05:02;;;;;;;4.68;1.25;;;22.10;55.10;;;;;;5028261;28;20033;-66
2021/09/08 13:07:28;;;;;;;2.70;0.93;;;22.10;54.80;;;;;;5031513;28;20029;-67
2021/09/08 13:09:55;;;;;;;3.83;0.93;;;22.10;54.80;;;;;;5029840;28;20057;-68
2021/09/08 13:12:21;;;;;;;1.98;0.88;;;22.00;54.90;;;;;;5023780;28;20042;-65
2021/09/08 13:14:47;;;;;;;2.47;0.73;;;21.90;55.40;;;;;;5032414;28;20116;-70
2021/09/08 13:17:14;;;;;;;4.00;1.20;;;21.90;55.50;;;;;;5027238;28;20017;-68
2021/09/08 13:19:40;;;;;;;7.45;1.98;;;21.80;55.60;;;;;;5029575;28;20021;-66
2021/09/08 13:22:07;;;;;;;5.32;1.42;;;21.80;55.50;;;;;;5025289;28;20072;-72